N35386 KBUR-KVNY
Flight info
| Callsign | N35386 |
|---|---|
| Flight time | 0h -13m |
| Altitude | 6000 |
| Route | SILEX |
| Aircraft | C172/L-SFG/C |
Departure
| Time | 2026-05-04 00:34 |
|---|---|
| Airport | Hollywood Burbank/Bob Hope Airport (KBUR) |
Arrival
| Time | 2026-05-04 00:21 |
|---|---|
| Airport | Van Nuys Airport (KVNY) |
| Time | Latitude | Longitude | Altitude | Speed | Heading |
|---|---|---|---|---|---|
| 2026-05-04 00:21 | 34.20070 | -118.35890 | 725 ft | 0 kts | 72° |
| 2026-05-04 00:27 | 34.20071 | -118.35889 | 725 ft | 1 kts | 70° |
| 2026-05-04 00:28 | 34.20084 | -118.35891 | 725 ft | 6 kts | 274° |
| 2026-05-04 00:28 | 34.20046 | -118.35917 | 724 ft | 7 kts | 176° |
| 2026-05-04 00:28 | 34.19997 | -118.35904 | 724 ft | 9 kts | 165° |
| 2026-05-04 00:28 | 34.19950 | -118.35923 | 723 ft | 9 kts | 267° |
| 2026-05-04 00:29 | 34.19950 | -118.35994 | 723 ft | 8 kts | 270° |
| 2026-05-04 00:29 | 34.19916 | -118.36023 | 723 ft | 6 kts | 187° |
| 2026-05-04 00:29 | 34.19890 | -118.36076 | 724 ft | 11 kts | 271° |
| 2026-05-04 00:29 | 34.19890 | -118.36186 | 724 ft | 15 kts | 272° |
| 2026-05-04 00:30 | 34.19892 | -118.36316 | 725 ft | 16 kts | 272° |
| 2026-05-04 00:30 | 34.19902 | -118.36433 | 729 ft | 11 kts | 282° |
| 2026-05-04 00:30 | 34.19908 | -118.36539 | 731 ft | 14 kts | 271° |
| 2026-05-04 00:30 | 34.19910 | -118.36662 | 734 ft | 15 kts | 271° |
| 2026-05-04 00:31 | 34.19912 | -118.36781 | 738 ft | 12 kts | 275° |
| 2026-05-04 00:31 | 34.19907 | -118.36873 | 741 ft | 10 kts | 241° |
| 2026-05-04 00:31 | 34.19867 | -118.36899 | 742 ft | 0 kts | 181° |
| 2026-05-04 00:32 | 34.19864 | -118.36899 | 742 ft | 3 kts | 179° |
| 2026-05-04 00:32 | 34.19807 | -118.36886 | 741 ft | 12 kts | 139° |
| 2026-05-04 00:33 | 34.19788 | -118.36713 | 737 ft | 39 kts | 90° |
| 2026-05-04 00:33 | 34.19773 | -118.35656 | 797 ft | 84 kts | 96° |
| 2026-05-04 00:33 | 34.19768 | -118.34904 | 957 ft | 92 kts | 97° |
| 2026-05-04 00:34 | 34.19772 | -118.34114 | 1152 ft | 98 kts | 94° |
| 2026-05-04 00:34 | 34.19765 | -118.33277 | 1339 ft | 99 kts | 103° |
| 2026-05-04 00:34 | 34.19338 | -118.32731 | 1529 ft | 93 kts | 169° |
| 2026-05-04 00:34 | 34.18703 | -118.32566 | 1735 ft | 94 kts | 179° |
| 2026-05-04 00:35 | 34.18115 | -118.32865 | 1911 ft | 95 kts | 224° |
| 2026-05-04 00:35 | 34.17830 | -118.33585 | 2087 ft | 98 kts | 258° |
| 2026-05-04 00:35 | 34.17805 | -118.34414 | 2259 ft | 99 kts | 265° |
| 2026-05-04 00:35 | 34.17780 | -118.35248 | 2428 ft | 100 kts | 266° |
| 2026-05-04 00:36 | 34.17737 | -118.36114 | 2499 ft | 109 kts | 267° |
| 2026-05-04 00:36 | 34.17690 | -118.37027 | 2520 ft | 108 kts | 263° |
| 2026-05-04 00:36 | 34.17824 | -118.37922 | 2509 ft | 113 kts | 290° |
| 2026-05-04 00:36 | 34.18419 | -118.38571 | 2508 ft | 120 kts | 329° |
| 2026-05-04 00:37 | 34.19247 | -118.38772 | 2506 ft | 125 kts | 357° |
| 2026-05-04 00:37 | 34.20115 | -118.38701 | 2499 ft | 124 kts | 2° |
| 2026-05-04 00:37 | 34.20974 | -118.38617 | 2501 ft | 124 kts | 1° |
| 2026-05-04 00:37 | 34.21832 | -118.38543 | 2492 ft | 123 kts | 1° |
| 2026-05-04 00:38 | 34.22664 | -118.38567 | 2489 ft | 116 kts | 338° |
| 2026-05-04 00:38 | 34.23278 | -118.39108 | 2472 ft | 110 kts | 303° |
| 2026-05-04 00:38 | 34.23514 | -118.39964 | 2391 ft | 109 kts | 263° |
| 2026-05-04 00:38 | 34.23414 | -118.40861 | 2284 ft | 107 kts | 266° |
| 2026-05-04 00:39 | 34.23409 | -118.41762 | 2143 ft | 108 kts | 274° |
| 2026-05-04 00:39 | 34.23454 | -118.42666 | 2043 ft | 106 kts | 272° |
| 2026-05-04 00:39 | 34.23476 | -118.43552 | 1918 ft | 106 kts | 270° |
| 2026-05-04 00:39 | 34.23491 | -118.44447 | 1889 ft | 107 kts | 269° |
| 2026-05-04 00:40 | 34.23487 | -118.45361 | 1857 ft | 110 kts | 269° |
| 2026-05-04 00:40 | 34.23478 | -118.46294 | 1805 ft | 112 kts | 268° |
| 2026-05-04 00:40 | 34.23471 | -118.47212 | 1741 ft | 106 kts | 268° |
| 2026-05-04 00:40 | 34.23453 | -118.48056 | 1674 ft | 92 kts | 261° |
| 2026-05-04 00:41 | 34.23245 | -118.48721 | 1515 ft | 79 kts | 225° |
| 2026-05-04 00:41 | 34.22836 | -118.49043 | 1274 ft | 65 kts | 192° |
| 2026-05-04 00:41 | 34.22378 | -118.49051 | 1093 ft | 69 kts | 172° |
| 2026-05-04 00:41 | 34.21894 | -118.49005 | 931 ft | 69 kts | 172° |
| 2026-05-04 00:42 | 34.21451 | -118.48959 | 795 ft | 56 kts | 174° |
| 2026-05-04 00:42 | 34.21153 | -118.48931 | 787 ft | 31 kts | 176° |
| 2026-05-04 00:42 | 34.21034 | -118.48911 | 787 ft | 9 kts | 131° |
| 2026-05-04 00:42 | 34.21031 | -118.48865 | 786 ft | 0 kts | 92° |
| 2026-05-04 00:43 | 34.21013 | -118.48838 | 785 ft | 13 kts | 155° |
| 2026-05-04 00:44 | 34.20892 | -118.48825 | 782 ft | 19 kts | 177° |
| 2026-05-04 00:44 | 34.20775 | -118.48821 | 779 ft | 16 kts | 182° |
| 2026-05-04 00:44 | 34.20638 | -118.48832 | 776 ft | 14 kts | 182° |
| 2026-05-04 00:44 | 34.20538 | -118.48839 | 773 ft | 15 kts | 184° |
| 2026-05-04 00:45 | 34.20434 | -118.48848 | 768 ft | 15 kts | 183° |
| 2026-05-04 00:45 | 34.20362 | -118.48853 | 765 ft | 15 kts | 181° |
| 2026-05-04 00:45 | 34.20278 | -118.48865 | 763 ft | 7 kts | 227° |
| 2026-05-04 00:45 | 34.20274 | -118.48875 | 763 ft | 0 kts | 263° |
| 2026-05-04 00:46 | 34.20273 | -118.48898 | 763 ft | 8 kts | 266° |
| 2026-05-04 00:46 | 34.20265 | -118.48999 | 762 ft | 13 kts | 266° |
| 2026-05-04 00:46 | 34.20300 | -118.49085 | 762 ft | 11 kts | 340° |
| 2026-05-04 00:47 | 34.20385 | -118.49100 | 767 ft | 17 kts | 353° |
| 2026-05-04 00:47 | 34.20512 | -118.49111 | 773 ft | 17 kts | 356° |
| 2026-05-04 00:47 | 34.20617 | -118.49121 | 776 ft | 14 kts | 354° |
| 2026-05-04 00:47 | 34.20715 | -118.49131 | 780 ft | 15 kts | 355° |
| 2026-05-04 00:48 | 34.20821 | -118.49144 | 785 ft | 12 kts | 342° |
| 2026-05-04 00:48 | 34.20856 | -118.49199 | 786 ft | 5 kts | 275° |
| 2026-05-04 00:48 | 34.20855 | -118.49213 | 786 ft | 0 kts | 269° |